sensor_id;sensor_type;location;lat;lon;timestamp;temperature;humidity
68867;SHT30;56451;44.804;20.476;2024-03-23T00:54:06;14.91;48.03
68867;SHT30;56451;44.804;20.476;2024-03-23T00:56:52;14.93;48.08
68867;SHT30;56451;44.804;20.476;2024-03-23T00:59:38;14.94;48.16
68867;SHT30;56451;44.804;20.476;2024-03-23T01:02:24;14.94;48.15
68867;SHT30;56451;44.804;20.476;2024-03-23T01:05:10;15.00;48.20
68867;SHT30;56451;44.804;20.476;2024-03-23T01:07:57;14.99;48.34
68867;SHT30;56451;44.804;20.476;2024-03-23T01:10:57;14.97;48.53
68867;SHT30;56451;44.804;20.476;2024-03-23T01:13:43;14.96;48.55
68867;SHT30;56451;44.804;20.476;2024-03-23T01:16:29;14.94;48.68
68867;SHT30;56451;44.804;20.476;2024-03-23T01:19:15;14.96;48.68
68867;SHT30;56451;44.804;20.476;2024-03-23T01:22:02;14.94;48.77
68867;SHT30;56451;44.804;20.476;2024-03-23T01:24:48;14.90;48.89
68867;SHT30;56451;44.804;20.476;2024-03-23T01:27:34;14.90;48.86
68867;SHT30;56451;44.804;20.476;2024-03-23T01:30:20;14.91;48.96
68867;SHT30;56451;44.804;20.476;2024-03-23T01:33:06;14.87;49.07
68867;SHT30;56451;44.804;20.476;2024-03-23T01:35:52;14.89;49.06
68867;SHT30;56451;44.804;20.476;2024-03-23T01:38:38;14.86;49.18
68867;SHT30;56451;44.804;20.476;2024-03-23T01:41:24;14.83;49.33
68867;SHT30;56451;44.804;20.476;2024-03-23T01:43:50;14.86;49.35
68867;SHT30;56451;44.804;20.476;2024-03-23T01:46:17;14.82;49.45
68867;SHT30;56451;44.804;20.476;2024-03-23T01:48:43;14.84;49.45
68867;SHT30;56451;44.804;20.476;2024-03-23T01:51:09;14.82;49.54
68867;SHT30;56451;44.804;20.476;2024-03-23T01:53:35;14.75;49.84
68867;SHT30;56451;44.804;20.476;2024-03-23T01:56:02;14.73;49.87
68867;SHT30;56451;44.804;20.476;2024-03-23T01:58:28;14.73;49.95
68867;SHT30;56451;44.804;20.476;2024-03-23T02:00:54;14.68;50.23
68867;SHT30;56451;44.804;20.476;2024-03-23T02:03:26;14.66;50.27
68867;SHT30;56451;44.804;20.476;2024-03-23T02:05:54;14.66;50.33
68867;SHT30;56451;44.804;20.476;2024-03-23T02:08:22;14.61;50.42
68867;SHT30;56451;44.804;20.476;2024-03-23T02:10:49;14.61;50.45
68867;SHT30;56451;44.804;20.476;2024-03-23T02:13:15;14.51;50.79
68867;SHT30;56451;44.804;20.476;2024-03-23T02:15:42;14.55;50.70
68867;SHT30;56451;44.804;20.476;2024-03-23T02:18:08;14.49;50.96
68867;SHT30;56451;44.804;20.476;2024-03-23T02:20:35;14.56;50.86
68867;SHT30;56451;44.804;20.476;2024-03-23T02:23:02;14.49;50.99
68867;SHT30;56451;44.804;20.476;2024-03-23T02:25:28;14.51;51.01
68867;SHT30;56451;44.804;20.476;2024-03-23T02:27:54;14.49;50.95
68867;SHT30;56451;44.804;20.476;2024-03-23T02:30:21;14.42;51.14
68867;SHT30;56451;44.804;20.476;2024-03-23T02:32:47;14.41;51.16
68867;SHT30;56451;44.804;20.476;2024-03-23T02:35:13;14.41;51.11
68867;SHT30;56451;44.804;20.476;2024-03-23T02:37:39;14.42;51.04
68867;SHT30;56451;44.804;20.476;2024-03-23T02:40:05;14.48;50.90
68867;SHT30;56451;44.804;20.476;2024-03-23T02:42:31;14.48;50.81
68867;SHT30;56451;44.804;20.476;2024-03-23T02:44:58;14.46;50.93
68867;SHT30;56451;44.804;20.476;2024-03-23T02:47:24;14.43;50.94
68867;SHT30;56451;44.804;20.476;2024-03-23T02:49:50;14.51;50.77
68867;SHT30;56451;44.804;20.476;2024-03-23T02:52:16;14.55;50.54
68867;SHT30;56451;44.804;20.476;2024-03-23T02:54:42;14.56;50.52
68867;SHT30;56451;44.804;20.476;2024-03-23T02:57:11;14.52;50.39
68867;SHT30;56451;44.804;20.476;2024-03-23T02:59:57;14.46;50.31
68867;SHT30;56451;44.804;20.476;2024-03-23T03:02:43;14.39;50.53
68867;SHT30;56451;44.804;20.476;2024-03-23T03:05:29;14.39;50.41
68867;SHT30;56451;44.804;20.476;2024-03-23T03:08:15;14.32;50.25
68867;SHT30;56451;44.804;20.476;2024-03-23T03:11:01;14.33;50.12
68867;SHT30;56451;44.804;20.476;2024-03-23T03:13:48;14.33;49.97
68867;SHT30;56451;44.804;20.476;2024-03-23T03:16:34;14.38;49.92
68867;SHT30;56451;44.804;20.476;2024-03-23T03:19:00;14.36;49.93
68867;SHT30;56451;44.804;20.476;2024-03-23T03:21:27;14.31;50.27
68867;SHT30;56451;44.804;20.476;2024-03-23T03:23:53;14.26;50.40
68867;SHT30;56451;44.804;20.476;2024-03-23T03:26:39;14.21;50.67
68867;SHT30;56451;44.804;20.476;2024-03-23T03:29:25;14.28;50.65
68867;SHT30;56451;44.804;20.476;2024-03-23T03:32:11;14.28;50.67
68867;SHT30;56451;44.804;20.476;2024-03-23T03:34:57;14.28;50.71
68867;SHT30;56451;44.804;20.476;2024-03-23T03:37:43;14.32;50.67
68867;SHT30;56451;44.804;20.476;2024-03-23T03:40:29;14.32;50.85
68867;SHT30;56451;44.804;20.476;2024-03-23T03:43:14;14.36;50.68
68867;SHT30;56451;44.804;20.476;2024-03-23T03:46:01;14.42;50.51
68867;SHT30;56451;44.804;20.476;2024-03-23T03:48:47;14.48;50.54
68867;SHT30;56451;44.804;20.476;2024-03-23T03:51:34;14.43;50.72
68867;SHT30;56451;44.804;20.476;2024-03-23T03:54:20;14.45;50.84
68867;SHT30;56451;44.804;20.476;2024-03-23T03:57:06;14.46;50.85
68867;SHT30;56451;44.804;20.476;2024-03-23T03:59:52;14.51;50.80
68867;SHT30;56451;44.804;20.476;2024-03-23T04:02:42;14.58;50.70
68867;SHT30;56451;44.804;20.476;2024-03-23T04:05:28;14.52;50.88
68867;SHT30;56451;44.804;20.476;2024-03-23T04:08:15;14.51;50.94
68867;SHT30;56451;44.804;20.476;2024-03-23T04:11:01;14.49;51.16
68867;SHT30;56451;44.804;20.476;2024-03-23T04:13:47;14.43;51.35
68867;SHT30;56451;44.804;20.476;2024-03-23T04:16:35;14.45;51.37
68867;SHT30;56451;44.804;20.476;2024-03-23T04:19:21;14.48;51.33
68867;SHT30;56451;44.804;20.476;2024-03-23T04:22:07;14.52;51.21
68867;SHT30;56451;44.804;20.476;2024-03-23T04:24:54;14.52;51.24
68867;SHT30;56451;44.804;20.476;2024-03-23T04:27:40;14.52;51.33
68867;SHT30;56451;44.804;20.476;2024-03-23T04:30:26;14.49;51.35
68867;SHT30;56451;44.804;20.476;2024-03-23T04:33:12;14.52;51.25
68867;SHT30;56451;44.804;20.476;2024-03-23T04:35:58;14.56;51.07
68867;SHT30;56451;44.804;20.476;2024-03-23T04:38:46;14.58;50.87
68867;SHT30;56451;44.804;20.476;2024-03-23T04:41:32;14.59;50.41
68867;SHT30;56451;44.804;20.476;2024-03-23T04:44:17;14.65;49.60
68867;SHT30;56451;44.804;20.476;2024-03-23T04:47:04;14.70;49.05
68867;SHT30;56451;44.804;20.476;2024-03-23T04:49:49;14.73;48.52
68867;SHT30;56451;44.804;20.476;2024-03-23T04:52:35;14.70;48.20
68867;SHT30;56451;44.804;20.476;2024-03-23T04:55:21;14.77;47.96
68867;SHT30;56451;44.804;20.476;2024-03-23T04:58:07;14.82;47.54
68867;SHT30;56451;44.804;20.476;2024-03-23T05:00:56;14.73;47.27
68867;SHT30;56451;44.804;20.476;2024-03-23T05:03:42;14.70;47.03
68867;SHT30;56451;44.804;20.476;2024-03-23T05:06:28;14.70;47.04
68867;SHT30;56451;44.804;20.476;2024-03-23T05:09:14;14.70;46.81
68867;SHT30;56451;44.804;20.476;2024-03-23T05:12:00;14.70;46.62
68867;SHT30;56451;44.804;20.476;2024-03-23T05:14:46;14.70;46.70
68867;SHT30;56451;44.804;20.476;2024-03-23T05:17:32;14.72;46.65
68867;SHT30;56451;44.804;20.476;2024-03-23T05:20:19;14.75;46.23
68867;SHT30;56451;44.804;20.476;2024-03-23T05:23:05;14.70;46.17
68867;SHT30;56451;44.804;20.476;2024-03-23T05:25:51;14.77;45.98
68867;SHT30;56451;44.804;20.476;2024-03-23T05:28:40;14.79;45.73
68867;SHT30;56451;44.804;20.476;2024-03-23T05:31:27;14.76;45.66
68867;SHT30;56451;44.804;20.476;2024-03-23T05:34:13;14.73;45.52
68867;SHT30;56451;44.804;20.476;2024-03-23T05:36:59;14.77;45.44
68867;SHT30;56451;44.804;20.476;2024-03-23T05:39:45;14.77;45.42
68867;SHT30;56451;44.804;20.476;2024-03-23T05:42:31;14.82;45.04
68867;SHT30;56451;44.804;20.476;2024-03-23T05:45:17;14.91;44.68
68867;SHT30;56451;44.804;20.476;2024-03-23T05:48:03;14.90;44.45
68867;SHT30;56451;44.804;20.476;2024-03-23T05:50:49;14.90;44.41
68867;SHT30;56451;44.804;20.476;2024-03-23T05:53:35;14.99;44.18
68867;SHT30;56451;44.804;20.476;2024-03-23T05:56:21;15.07;43.84
68867;SHT30;56451;44.804;20.476;2024-03-23T05:59:07;15.16;43.61
68867;SHT30;56451;44.804;20.476;2024-03-23T06:01:53;15.23;43.39
68867;SHT30;56451;44.804;20.476;2024-03-23T06:04:39;15.21;43.45
68867;SHT30;56451;44.804;20.476;2024-03-23T06:07:25;15.26;43.10
68867;SHT30;56451;44.804;20.476;2024-03-23T06:10:11;15.30;43.18
68867;SHT30;56451;44.804;20.476;2024-03-23T06:12:57;15.31;43.19
68867;SHT30;56451;44.804;20.476;2024-03-23T06:15:43;15.39;43.03
68867;SHT30;56451;44.804;20.476;2024-03-23T06:18:29;15.42;42.83
68867;SHT30;56451;44.804;20.476;2024-03-23T06:21:15;15.47;42.54
68867;SHT30;56451;44.804;20.476;2024-03-23T06:24:01;15.51;42.46
68867;SHT30;56451;44.804;20.476;2024-03-23T06:26:48;15.57;42.27
68867;SHT30;56451;44.804;20.476;2024-03-23T06:29:34;15.59;42.13
68867;SHT30;56451;44.804;20.476;2024-03-23T06:32:20;15.68;42.00
68867;SHT30;56451;44.804;20.476;2024-03-23T06:35:07;15.81;41.56
68867;SHT30;56451;44.804;20.476;2024-03-23T06:37:53;15.89;41.10
68867;SHT30;56451;44.804;20.476;2024-03-23T06:40:39;15.92;41.06
68867;SHT30;56451;44.804;20.476;2024-03-23T06:43:25;15.92;41.10
68867;SHT30;56451;44.804;20.476;2024-03-23T06:46:10;16.02;40.79
68867;SHT30;56451;44.804;20.476;2024-03-23T06:48:56;16.09;40.82
68867;SHT30;56451;44.804;20.476;2024-03-23T06:51:42;16.17;40.67
68867;SHT30;56451;44.804;20.476;2024-03-23T06:54:28;16.24;40.53
68867;SHT30;56451;44.804;20.476;2024-03-23T06:57:14;16.34;40.28
68867;SHT30;56451;44.804;20.476;2024-03-23T07:00:00;16.40;39.94
68867;SHT30;56451;44.804;20.476;2024-03-23T07:02:47;16.44;39.64
68867;SHT30;56451;44.804;20.476;2024-03-23T07:05:33;16.57;39.44
68867;SHT30;56451;44.804;20.476;2024-03-23T07:08:18;16.63;39.48
68867;SHT30;56451;44.804;20.476;2024-03-23T07:11:04;16.74;39.39
68867;SHT30;56451;44.804;20.476;2024-03-23T07:13:51;16.81;39.04
68867;SHT30;56451;44.804;20.476;2024-03-23T07:16:37;16.85;39.17
68867;SHT30;56451;44.804;20.476;2024-03-23T07:19:24;16.89;39.38
68867;SHT30;56451;44.804;20.476;2024-03-23T07:22:10;16.91;39.46
68867;SHT30;56451;44.804;20.476;2024-03-23T07:24:56;17.01;39.43
68867;SHT30;56451;44.804;20.476;2024-03-23T07:27:42;17.05;39.53
68867;SHT30;56451;44.804;20.476;2024-03-23T07:30:27;17.15;39.53
68867;SHT30;56451;44.804;20.476;2024-03-23T07:33:13;17.19;39.32
68867;SHT30;56451;44.804;20.476;2024-03-23T07:36:00;17.24;39.23
68867;SHT30;56451;44.804;20.476;2024-03-23T07:38:45;17.33;39.22
68867;SHT30;56451;44.804;20.476;2024-03-23T07:41:32;17.39;39.05
68867;SHT30;56451;44.804;20.476;2024-03-23T07:44:18;17.47;39.00
68867;SHT30;56451;44.804;20.476;2024-03-23T07:47:04;17.57;38.64
68867;SHT30;56451;44.804;20.476;2024-03-23T07:49:50;17.64;38.56
68867;SHT30;56451;44.804;20.476;2024-03-23T07:52:36;17.66;38.50
68867;SHT30;56451;44.804;20.476;2024-03-23T07:55:22;17.70;38.13
68867;SHT30;56451;44.804;20.476;2024-03-23T07:58:08;17.73;38.18
68867;SHT30;56451;44.804;20.476;2024-03-23T08:00:55;17.82;38.15
68867;SHT30;56451;44.804;20.476;2024-03-23T08:03:42;17.88;37.66
68867;SHT30;56451;44.804;20.476;2024-03-23T08:06:28;17.94;37.62
68867;SHT30;56451;44.804;20.476;2024-03-23T08:09:14;18.00;37.79
68867;SHT30;56451;44.804;20.476;2024-03-23T08:12:00;18.04;37.15
68867;SHT30;56451;44.804;20.476;2024-03-23T08:14:46;18.09;37.43
68867;SHT30;56451;44.804;20.476;2024-03-23T08:17:32;18.16;36.87
68867;SHT30;56451;44.804;20.476;2024-03-23T08:20:18;18.25;36.95
68867;SHT30;56451;44.804;20.476;2024-03-23T08:23:07;18.29;36.86
68867;SHT30;56451;44.804;20.476;2024-03-23T08:26:01;18.33;36.78
68867;SHT30;56451;44.804;20.476;2024-03-23T08:28:47;18.42;36.73
68867;SHT30;56451;44.804;20.476;2024-03-23T08:31:32;18.48;36.65
68867;SHT30;56451;44.804;20.476;2024-03-23T08:34:18;18.52;36.35
68867;SHT30;56451;44.804;20.476;2024-03-23T08:37:04;18.57;36.45
68867;SHT30;56451;44.804;20.476;2024-03-23T08:39:51;18.61;36.52
68867;SHT30;56451;44.804;20.476;2024-03-23T08:42:37;18.69;36.27
68867;SHT30;56451;44.804;20.476;2024-03-23T08:45:24;18.74;36.00
68867;SHT30;56451;44.804;20.476;2024-03-23T08:48:11;18.83;35.77
68867;SHT30;56451;44.804;20.476;2024-03-23T08:50:36;18.87;35.75
68867;SHT30;56451;44.804;20.476;2024-03-23T08:53:03;18.90;35.53
68867;SHT30;56451;44.804;20.476;2024-03-23T08:55:29;18.94;35.45
68867;SHT30;56451;44.804;20.476;2024-03-23T08:57:55;19.04;35.44
68867;SHT30;56451;44.804;20.476;2024-03-23T09:00:21;19.12;35.39
68867;SHT30;56451;44.804;20.476;2024-03-23T09:02:48;19.15;35.26
68867;SHT30;56451;44.804;20.476;2024-03-23T09:05:14;19.19;35.27
68867;SHT30;56451;44.804;20.476;2024-03-23T09:08:00;19.21;35.22
68867;SHT30;56451;44.804;20.476;2024-03-23T09:10:26;19.24;35.40
68867;SHT30;56451;44.804;20.476;2024-03-23T09:12:52;19.31;35.33
68867;SHT30;56451;44.804;20.476;2024-03-23T09:15:17;19.35;35.40
68867;SHT30;56451;44.804;20.476;2024-03-23T09:17:43;19.42;35.38
68867;SHT30;56451;44.804;20.476;2024-03-23T09:20:10;19.48;35.56
68867;SHT30;56451;44.804;20.476;2024-03-23T09:22:36;19.51;35.48
68867;SHT30;56451;44.804;20.476;2024-03-23T09:25:02;19.56;35.15
68867;SHT30;56451;44.804;20.476;2024-03-23T09:27:30;19.59;35.14
68867;SHT30;56451;44.804;20.476;2024-03-23T09:29:56;19.59;35.28
68867;SHT30;56451;44.804;20.476;2024-03-23T09:32:22;19.56;35.44
68867;SHT30;56451;44.804;20.476;2024-03-23T09:34:48;19.59;35.61
68867;SHT30;56451;44.804;20.476;2024-03-23T09:37:15;19.62;35.49
68867;SHT30;56451;44.804;20.476;2024-03-23T09:39:41;19.66;35.54
68867;SHT30;56451;44.804;20.476;2024-03-23T09:42:07;19.73;35.52
68867;SHT30;56451;44.804;20.476;2024-03-23T09:44:35;19.75;35.59
68867;SHT30;56451;44.804;20.476;2024-03-23T09:47:01;19.76;35.48
68867;SHT30;56451;44.804;20.476;2024-03-23T09:49:27;19.84;35.25
68867;SHT30;56451;44.804;20.476;2024-03-23T09:51:54;19.84;35.13
68867;SHT30;56451;44.804;20.476;2024-03-23T09:54:20;19.76;35.43
68867;SHT30;56451;44.804;20.476;2024-03-23T09:56:47;19.72;35.34
68867;SHT30;56451;44.804;20.476;2024-03-23T09:59:13;19.73;35.37
68867;SHT30;56451;44.804;20.476;2024-03-23T10:01:39;19.73;35.44
68867;SHT30;56451;44.804;20.476;2024-03-23T10:04:05;19.79;35.28
68867;SHT30;56451;44.804;20.476;2024-03-23T10:06:32;19.79;35.14
68867;SHT30;56451;44.804;20.476;2024-03-23T10:09:00;19.75;35.06
68867;SHT30;56451;44.804;20.476;2024-03-23T10:11:26;19.73;34.96
68867;SHT30;56451;44.804;20.476;2024-03-23T10:13:52;19.70;35.41
68867;SHT30;56451;44.804;20.476;2024-03-23T10:16:23;19.65;35.32
68867;SHT30;56451;44.804;20.476;2024-03-23T10:18:49;19.66;35.67
68867;SHT30;56451;44.804;20.476;2024-03-23T10:21:16;19.75;35.80
68867;SHT30;56451;44.804;20.476;2024-03-23T10:23:43;19.86;35.56
68867;SHT30;56451;44.804;20.476;2024-03-23T10:26:22;19.92;35.30
68867;SHT30;56451;44.804;20.476;2024-03-23T10:29:00;19.96;34.82
68867;SHT30;56451;44.804;20.476;2024-03-23T10:31:28;20.00;34.63
68867;SHT30;56451;44.804;20.476;2024-03-23T10:33:54;20.01;34.58
68867;SHT30;56451;44.804;20.476;2024-03-23T10:36:22;20.12;34.69
68867;SHT30;56451;44.804;20.476;2024-03-23T10:38:50;20.18;34.57
68867;SHT30;56451;44.804;20.476;2024-03-23T10:41:18;20.30;34.46
68867;SHT30;56451;44.804;20.476;2024-03-23T10:43:46;20.41;33.70
68867;SHT30;56451;44.804;20.476;2024-03-23T10:46:12;20.44;33.42
68867;SHT30;56451;44.804;20.476;2024-03-23T10:48:38;20.49;33.52
68867;SHT30;56451;44.804;20.476;2024-03-23T10:51:08;20.61;33.49
68867;SHT30;56451;44.804;20.476;2024-03-23T10:53:35;20.65;33.66
68867;SHT30;56451;44.804;20.476;2024-03-23T10:56:03;20.73;33.43
68867;SHT30;56451;44.804;20.476;2024-03-23T10:58:45;20.76;32.81
68867;SHT30;56451;44.804;20.476;2024-03-23T11:01:12;20.79;32.34
68867;SHT30;56451;44.804;20.476;2024-03-23T11:03:40;20.81;32.65
68867;SHT30;56451;44.804;20.476;2024-03-23T11:06:10;20.88;32.42
68867;SHT30;56451;44.804;20.476;2024-03-23T11:08:38;20.92;32.40
68867;SHT30;56451;44.804;20.476;2024-03-23T11:11:20;21.02;32.65
68867;SHT30;56451;44.804;20.476;2024-03-23T11:13:53;21.00;32.14
68867;SHT30;56451;44.804;20.476;2024-03-23T11:16:24;21.04;31.74
68867;SHT30;56451;44.804;20.476;2024-03-23T11:18:51;21.04;31.00
68867;SHT30;56451;44.804;20.476;2024-03-23T11:21:52;20.95;30.63
68867;SHT30;56451;44.804;20.476;2024-03-23T11:24:20;20.98;30.77
68867;SHT30;56451;44.804;20.476;2024-03-23T11:26:47;21.00;31.05
68867;SHT30;56451;44.804;20.476;2024-03-23T11:29:15;21.09;31.04
68867;SHT30;56451;44.804;20.476;2024-03-23T11:31:47;21.19;30.62
68867;SHT30;56451;44.804;20.476;2024-03-23T11:34:15;21.27;30.16
68867;SHT30;56451;44.804;20.476;2024-03-23T11:36:42;21.31;30.14
68867;SHT30;56451;44.804;20.476;2024-03-23T11:39:18;21.40;29.95
68867;SHT30;56451;44.804;20.476;2024-03-23T11:41:55;21.48;29.26
68867;SHT30;56451;44.804;20.476;2024-03-23T11:44:24;21.53;29.34
68867;SHT30;56451;44.804;20.476;2024-03-23T11:46:51;21.55;29.18
68867;SHT30;56451;44.804;20.476;2024-03-23T11:49:21;21.48;29.49
68867;SHT30;56451;44.804;20.476;2024-03-23T11:51:52;21.55;29.55
68867;SHT30;56451;44.804;20.476;2024-03-23T11:54:26;21.55;29.84
68867;SHT30;56451;44.804;20.476;2024-03-23T11:57:00;21.54;29.61
68867;SHT30;56451;44.804;20.476;2024-03-23T12:04:32;21.53;29.04
68867;SHT30;56451;44.804;20.476;2024-03-23T12:07:18;21.51;28.87
68867;SHT30;56451;44.804;20.476;2024-03-23T12:10:03;21.47;29.17
68867;SHT30;56451;44.804;20.476;2024-03-23T12:12:29;21.47;29.19
68867;SHT30;56451;44.804;20.476;2024-03-23T12:15:03;21.54;29.34
68867;SHT30;56451;44.804;20.476;2024-03-23T12:17:49;21.64;28.76
68867;SHT30;56451;44.804;20.476;2024-03-23T12:20:36;21.61;28.82
68867;SHT30;56451;44.804;20.476;2024-03-23T12:23:22;21.68;28.77
68867;SHT30;56451;44.804;20.476;2024-03-23T12:26:08;21.79;29.06
68867;SHT30;56451;44.804;20.476;2024-03-23T12:28:53;21.82;28.73
68867;SHT30;56451;44.804;20.476;2024-03-23T12:31:39;21.87;28.54
68867;SHT30;56451;44.804;20.476;2024-03-23T12:34:25;21.88;28.30
68867;SHT30;56451;44.804;20.476;2024-03-23T12:37:11;21.91;28.48
68867;SHT30;56451;44.804;20.476;2024-03-23T12:39:57;21.96;28.62
68867;SHT30;56451;44.804;20.476;2024-03-23T12:42:23;21.98;28.65
68867;SHT30;56451;44.804;20.476;2024-03-23T12:44:49;22.01;28.51
68867;SHT30;56451;44.804;20.476;2024-03-23T12:47:15;22.01;28.28
68867;SHT30;56451;44.804;20.476;2024-03-23T12:49:41;22.01;28.47
68867;SHT30;56451;44.804;20.476;2024-03-23T12:52:07;22.05;28.55
68867;SHT30;56451;44.804;20.476;2024-03-23T12:54:33;22.02;28.64
68867;SHT30;56451;44.804;20.476;2024-03-23T12:57:00;22.04;29.11
68867;SHT30;56451;44.804;20.476;2024-03-23T12:59:28;21.96;29.01
68867;SHT30;56451;44.804;20.476;2024-03-23T13:01:54;21.98;28.86
68867;SHT30;56451;44.804;20.476;2024-03-23T13:04:20;21.95;28.86
68867;SHT30;56451;44.804;20.476;2024-03-23T13:06:46;21.99;29.20
68867;SHT30;56451;44.804;20.476;2024-03-23T13:09:12;22.09;29.28
68867;SHT30;56451;44.804;20.476;2024-03-23T13:11:38;22.17;29.23
68867;SHT30;56451;44.804;20.476;2024-03-23T13:14:24;22.29;28.84
68867;SHT30;56451;44.804;20.476;2024-03-23T13:17:11;22.32;28.66
68867;SHT30;56451;44.804;20.476;2024-03-23T13:19:57;22.37;28.74
68867;SHT30;56451;44.804;20.476;2024-03-23T13:22:42;22.37;28.61
68867;SHT30;56451;44.804;20.476;2024-03-23T13:25:28;22.39;28.83
68867;SHT30;56451;44.804;20.476;2024-03-23T13:28:14;22.46;28.82
68867;SHT30;56451;44.804;20.476;2024-03-23T13:31:00;22.57;28.88
68867;SHT30;56451;44.804;20.476;2024-03-23T13:33:46;22.61;28.84
68867;SHT30;56451;44.804;20.476;2024-03-23T13:36:32;22.67;28.77
68867;SHT30;56451;44.804;20.476;2024-03-23T13:39:18;22.73;28.65
68867;SHT30;56451;44.804;20.476;2024-03-23T13:42:04;22.90;28.19
68867;SHT30;56451;44.804;20.476;2024-03-23T13:44:49;22.97;27.90
68867;SHT30;56451;44.804;20.476;2024-03-23T13:47:36;23.12;27.83
68867;SHT30;56451;44.804;20.476;2024-03-23T13:50:21;23.28;27.58
68867;SHT30;56451;44.804;20.476;2024-03-23T13:53:07;23.29;27.79
68867;SHT30;56451;44.804;20.476;2024-03-23T13:55:53;23.32;27.50
68867;SHT30;56451;44.804;20.476;2024-03-23T13:58:39;23.33;27.33
68867;SHT30;56451;44.804;20.476;2024-03-23T14:01:25;23.38;27.32
68867;SHT30;56451;44.804;20.476;2024-03-23T14:04:12;23.42;27.58
68867;SHT30;56451;44.804;20.476;2024-03-23T14:06:58;23.49;27.28
68867;SHT30;56451;44.804;20.476;2024-03-23T14:09:44;23.56;27.26
68867;SHT30;56451;44.804;20.476;2024-03-23T14:12:30;23.63;26.81
68867;SHT30;56451;44.804;20.476;2024-03-23T14:15:16;23.66;26.98
68867;SHT30;56451;44.804;20.476;2024-03-23T14:18:02;23.79;27.09
68867;SHT30;56451;44.804;20.476;2024-03-23T14:20:49;24.01;26.88
68867;SHT30;56451;44.804;20.476;2024-03-23T14:23:35;24.18;26.33
68867;SHT30;56451;44.804;20.476;2024-03-23T14:26:21;24.31;26.49
68867;SHT30;56451;44.804;20.476;2024-03-23T14:29:07;24.42;26.13
68867;SHT30;56451;44.804;20.476;2024-03-23T14:31:53;24.58;25.90
68867;SHT30;56451;44.804;20.476;2024-03-23T14:34:39;24.65;25.86
68867;SHT30;56451;44.804;20.476;2024-03-23T14:37:25;24.66;25.86
68867;SHT30;56451;44.804;20.476;2024-03-23T14:40:11;24.71;26.02
68867;SHT30;56451;44.804;20.476;2024-03-23T14:42:57;24.82;25.92
68867;SHT30;56451;44.804;20.476;2024-03-23T14:46:14;24.93;25.82
68867;SHT30;56451;44.804;20.476;2024-03-23T14:49:01;25.02;25.37
68867;SHT30;56451;44.804;20.476;2024-03-23T14:51:47;25.12;24.97
68867;SHT30;56451;44.804;20.476;2024-03-23T14:54:33;25.20;25.22
68867;SHT30;56451;44.804;20.476;2024-03-23T14:57:18;25.28;25.09
68867;SHT30;56451;44.804;20.476;2024-03-23T15:00:08;25.41;24.50
68867;SHT30;56451;44.804;20.476;2024-03-23T15:02:54;25.45;24.15
68867;SHT30;56451;44.804;20.476;2024-03-23T15:05:40;25.38;23.94
68867;SHT30;56451;44.804;20.476;2024-03-23T15:08:26;25.33;24.00
68867;SHT30;56451;44.804;20.476;2024-03-23T15:11:12;25.33;24.25
68867;SHT30;56451;44.804;20.476;2024-03-23T15:13:58;25.35;24.51
68867;SHT30;56451;44.804;20.476;2024-03-23T15:16:44;25.37;24.45
68867;SHT30;56451;44.804;20.476;2024-03-23T15:19:30;25.38;24.68
68867;SHT30;56451;44.804;20.476;2024-03-23T15:22:16;25.37;24.59
68867;SHT30;56451;44.804;20.476;2024-03-23T15:25:02;25.33;24.62
68867;SHT30;56451;44.804;20.476;2024-03-23T15:27:48;25.38;24.68
68867;SHT30;56451;44.804;20.476;2024-03-23T15:30:34;25.37;24.45
68867;SHT30;56451;44.804;20.476;2024-03-23T15:33:20;25.37;24.51
68867;SHT30;56451;44.804;20.476;2024-03-23T15:36:06;25.33;24.62
68867;SHT30;56451;44.804;20.476;2024-03-23T15:38:52;25.33;24.68
68867;SHT30;56451;44.804;20.476;2024-03-23T15:41:38;25.41;24.62
68867;SHT30;56451;44.804;20.476;2024-03-23T15:44:24;25.37;24.38
68867;SHT30;56451;44.804;20.476;2024-03-23T15:47:10;25.40;24.39
68867;SHT30;56451;44.804;20.476;2024-03-23T15:49:56;25.41;24.40
68867;SHT30;56451;44.804;20.476;2024-03-23T15:52:42;25.37;24.53
68867;SHT30;56451;44.804;20.476;2024-03-23T15:55:28;25.35;24.33
68867;SHT30;56451;44.804;20.476;2024-03-23T15:58:16;25.23;24.52
68867;SHT30;56451;44.804;20.476;2024-03-23T16:01:04;25.13;24.66
68867;SHT30;56451;44.804;20.476;2024-03-23T16:03:50;25.00;24.86
68867;SHT30;56451;44.804;20.476;2024-03-23T16:06:36;24.87;25.07
68867;SHT30;56451;44.804;20.476;2024-03-23T16:09:22;24.69;25.20
68867;SHT30;56451;44.804;20.476;2024-03-23T16:12:08;24.61;25.16
68867;SHT30;56451;44.804;20.476;2024-03-23T16:14:54;24.47;25.35
68867;SHT30;56451;44.804;20.476;2024-03-23T16:17:40;24.31;25.48
68867;SHT30;56451;44.804;20.476;2024-03-23T16:20:26;24.18;25.76
68867;SHT30;56451;44.804;20.476;2024-03-23T16:23:12;24.08;25.92
68867;SHT30;56451;44.804;20.476;2024-03-23T16:25:59;23.96;26.12
68867;SHT30;56451;44.804;20.476;2024-03-23T16:28:45;23.81;26.20
68867;SHT30;56451;44.804;20.476;2024-03-23T16:31:31;23.74;26.27
68867;SHT30;56451;44.804;20.476;2024-03-23T16:34:17;23.62;26.58
68867;SHT30;56451;44.804;20.476;2024-03-23T16:37:03;23.46;26.80
68867;SHT30;56451;44.804;20.476;2024-03-23T16:39:49;23.35;26.88
68867;SHT30;56451;44.804;20.476;2024-03-23T16:42:35;23.29;26.82
68867;SHT30;56451;44.804;20.476;2024-03-23T16:45:21;23.19;26.87
68867;SHT30;56451;44.804;20.476;2024-03-23T16:48:07;23.05;27.21
68867;SHT30;56451;44.804;20.476;2024-03-23T16:50:56;22.94;27.59
68867;SHT30;56451;44.804;20.476;2024-03-23T16:53:42;22.84;27.63
68867;SHT30;56451;44.804;20.476;2024-03-23T16:56:28;22.75;27.94
68867;SHT30;56451;44.804;20.476;2024-03-23T16:59:14;22.66;27.78
68867;SHT30;56451;44.804;20.476;2024-03-23T17:02:00;22.60;28.05
68867;SHT30;56451;44.804;20.476;2024-03-23T17:04:46;22.54;28.21
68867;SHT30;56451;44.804;20.476;2024-03-23T17:07:32;22.43;28.31
68867;SHT30;56451;44.804;20.476;2024-03-23T17:10:18;22.37;28.41
68867;SHT30;56451;44.804;20.476;2024-03-23T17:13:04;22.35;28.50
68867;SHT30;56451;44.804;20.476;2024-03-23T17:15:50;22.25;28.78
68867;SHT30;56451;44.804;20.476;2024-03-23T17:18:36;22.19;28.86
68867;SHT30;56451;44.804;20.476;2024-03-23T17:21:23;22.09;29.13
68867;SHT30;56451;44.804;20.476;2024-03-23T17:24:09;22.05;29.32
68867;SHT30;56451;44.804;20.476;2024-03-23T17:26:55;21.99;29.54
68867;SHT30;56451;44.804;20.476;2024-03-23T17:29:41;21.94;29.74
68867;SHT30;56451;44.804;20.476;2024-03-23T17:32:30;21.87;29.91